sensor_id;sensor_type;location;lat;lon;timestamp;temperature;humidity
51884;DHT22;37915;53.254;6.598;2023-05-10T00:00:33;13.20;99.90
51884;DHT22;37915;53.254;6.598;2023-05-10T00:02:59;13.10;99.90
51884;DHT22;37915;53.254;6.598;2023-05-10T00:05:24;13.10;99.90
51884;DHT22;37915;53.254;6.598;2023-05-10T00:07:50;13.10;99.90
51884;DHT22;37915;53.254;6.598;2023-05-10T00:10:16;13.00;99.90
51884;DHT22;37915;53.254;6.598;2023-05-10T00:12:41;13.00;99.90
51884;DHT22;37915;53.254;6.598;2023-05-10T00:15:10;13.00;99.90
51884;DHT22;37915;53.254;6.598;2023-05-10T00:17:36;13.00;99.90
51884;DHT22;37915;53.254;6.598;2023-05-10T00:20:01;13.00;99.90
51884;DHT22;37915;53.254;6.598;2023-05-10T00:22:27;13.00;99.90
51884;DHT22;37915;53.254;6.598;2023-05-10T00:24:53;13.00;99.90
51884;DHT22;37915;53.254;6.598;2023-05-10T00:27:18;13.00;99.90
51884;DHT22;37915;53.254;6.598;2023-05-10T00:29:44;13.00;99.90
51884;DHT22;37915;53.254;6.598;2023-05-10T00:32:10;12.90;99.90
51884;DHT22;37915;53.254;6.598;2023-05-10T00:34:35;12.90;99.90
51884;DHT22;37915;53.254;6.598;2023-05-10T00:37:01;12.90;99.90
51884;DHT22;37915;53.254;6.598;2023-05-10T00:39:28;12.90;99.90
51884;DHT22;37915;53.254;6.598;2023-05-10T00:41:54;12.90;99.90
51884;DHT22;37915;53.254;6.598;2023-05-10T00:44:20;12.90;99.90
51884;DHT22;37915;53.254;6.598;2023-05-10T00:46:46;12.80;99.90
51884;DHT22;37915;53.254;6.598;2023-05-10T00:49:13;12.90;99.90
51884;DHT22;37915;53.254;6.598;2023-05-10T00:51:39;12.80;99.90
51884;DHT22;37915;53.254;6.598;2023-05-10T00:54:05;12.80;99.90
51884;DHT22;37915;53.254;6.598;2023-05-10T00:56:30;12.70;99.90
51884;DHT22;37915;53.254;6.598;2023-05-10T00:58:56;12.80;99.90
51884;DHT22;37915;53.254;6.598;2023-05-10T01:01:22;12.80;99.90
51884;DHT22;37915;53.254;6.598;2023-05-10T01:03:48;12.70;99.90
51884;DHT22;37915;53.254;6.598;2023-05-10T01:06:14;12.70;99.90
51884;DHT22;37915;53.254;6.598;2023-05-10T01:08:39;12.70;99.90
51884;DHT22;37915;53.254;6.598;2023-05-10T01:11:06;12.60;99.90
51884;DHT22;37915;53.254;6.598;2023-05-10T01:13:37;12.60;99.90
51884;DHT22;37915;53.254;6.598;2023-05-10T01:16:04;12.60;99.90
51884;DHT22;37915;53.254;6.598;2023-05-10T01:18:35;12.60;99.90
51884;DHT22;37915;53.254;6.598;2023-05-10T01:21:23;12.60;99.90
51884;DHT22;37915;53.254;6.598;2023-05-10T01:26:59;12.50;99.90
51884;DHT22;37915;53.254;6.598;2023-05-10T01:35:58;12.50;99.90
51884;DHT22;37915;53.254;6.598;2023-05-10T01:38:22;12.50;99.90
51884;DHT22;37915;53.254;6.598;2023-05-10T01:43:33;12.40;99.90
51884;DHT22;37915;53.254;6.598;2023-05-10T01:46:07;12.40;99.90
51884;DHT22;37915;53.254;6.598;2023-05-10T01:48:41;12.40;99.90
51884;DHT22;37915;53.254;6.598;2023-05-10T01:51:14;12.40;99.90
51884;DHT22;37915;53.254;6.598;2023-05-10T01:53:42;12.40;99.90
51884;DHT22;37915;53.254;6.598;2023-05-10T01:56:10;12.40;99.90
51884;DHT22;37915;53.254;6.598;2023-05-10T01:58:39;12.40;99.90
51884;DHT22;37915;53.254;6.598;2023-05-10T02:01:07;12.40;99.90
51884;DHT22;37915;53.254;6.598;2023-05-10T02:03:35;12.40;99.90
51884;DHT22;37915;53.254;6.598;2023-05-10T02:06:02;12.40;99.90
51884;DHT22;37915;53.254;6.598;2023-05-10T02:08:29;12.40;99.90
51884;DHT22;37915;53.254;6.598;2023-05-10T02:10:56;12.30;99.90
51884;DHT22;37915;53.254;6.598;2023-05-10T02:13:23;12.30;99.90
51884;DHT22;37915;53.254;6.598;2023-05-10T02:15:50;12.30;99.90
51884;DHT22;37915;53.254;6.598;2023-05-10T02:18:18;12.30;99.90
51884;DHT22;37915;53.254;6.598;2023-05-10T02:20:45;12.30;99.90
51884;DHT22;37915;53.254;6.598;2023-05-10T02:23:12;12.30;99.90
51884;DHT22;37915;53.254;6.598;2023-05-10T02:25:39;12.20;99.90
51884;DHT22;37915;53.254;6.598;2023-05-10T02:28:06;12.30;99.90
51884;DHT22;37915;53.254;6.598;2023-05-10T02:30:33;12.20;99.90
51884;DHT22;37915;53.254;6.598;2023-05-10T02:33:01;12.30;99.90
51884;DHT22;37915;53.254;6.598;2023-05-10T02:35:28;12.30;99.90
51884;DHT22;37915;53.254;6.598;2023-05-10T02:37:54;12.30;99.90
51884;DHT22;37915;53.254;6.598;2023-05-10T02:40:21;12.30;99.90
51884;DHT22;37915;53.254;6.598;2023-05-10T02:42:48;12.20;99.90
51884;DHT22;37915;53.254;6.598;2023-05-10T02:45:19;12.20;99.90
51884;DHT22;37915;53.254;6.598;2023-05-10T02:47:46;12.20;99.90
51884;DHT22;37915;53.254;6.598;2023-05-10T02:50:11;12.20;99.90
51884;DHT22;37915;53.254;6.598;2023-05-10T02:52:46;12.20;99.90
51884;DHT22;37915;53.254;6.598;2023-05-10T02:55:15;12.20;99.90
51884;DHT22;37915;53.254;6.598;2023-05-10T02:58:02;12.20;99.90
51884;DHT22;37915;53.254;6.598;2023-05-10T03:00:28;12.10;99.90
51884;DHT22;37915;53.254;6.598;2023-05-10T03:02:54;12.10;99.90
51884;DHT22;37915;53.254;6.598;2023-05-10T03:05:20;12.20;99.90
51884;DHT22;37915;53.254;6.598;2023-05-10T03:07:46;12.20;99.90
51884;DHT22;37915;53.254;6.598;2023-05-10T03:10:12;12.20;99.90
51884;DHT22;37915;53.254;6.598;2023-05-10T03:12:56;12.20;99.90
51884;DHT22;37915;53.254;6.598;2023-05-10T03:18:10;12.20;99.90
51884;DHT22;37915;53.254;6.598;2023-05-10T03:20:49;12.20;99.90
51884;DHT22;37915;53.254;6.598;2023-05-10T03:23:35;12.20;99.90
51884;DHT22;37915;53.254;6.598;2023-05-10T03:26:01;12.20;99.90
51884;DHT22;37915;53.254;6.598;2023-05-10T03:28:27;12.10;99.90
51884;DHT22;37915;53.254;6.598;2023-05-10T03:30:53;12.10;99.90
51884;DHT22;37915;53.254;6.598;2023-05-10T03:33:20;12.10;99.90
51884;DHT22;37915;53.254;6.598;2023-05-10T03:35:46;12.10;99.90
51884;DHT22;37915;53.254;6.598;2023-05-10T03:38:12;12.20;99.90
51884;DHT22;37915;53.254;6.598;2023-05-10T03:40:38;12.10;99.90
51884;DHT22;37915;53.254;6.598;2023-05-10T03:43:04;12.20;99.90
51884;DHT22;37915;53.254;6.598;2023-05-10T03:45:30;12.20;99.90
51884;DHT22;37915;53.254;6.598;2023-05-10T03:47:57;12.20;99.90
51884;DHT22;37915;53.254;6.598;2023-05-10T03:50:23;12.20;99.90
51884;DHT22;37915;53.254;6.598;2023-05-10T03:52:48;12.20;99.90
51884;DHT22;37915;53.254;6.598;2023-05-10T03:55:14;12.20;99.90
51884;DHT22;37915;53.254;6.598;2023-05-10T03:57:40;12.10;99.90
51884;DHT22;37915;53.254;6.598;2023-05-10T04:00:06;12.10;99.90
51884;DHT22;37915;53.254;6.598;2023-05-10T04:02:33;12.10;99.90
51884;DHT22;37915;53.254;6.598;2023-05-10T04:05:11;12.10;99.90
51884;DHT22;37915;53.254;6.598;2023-05-10T04:07:49;12.10;99.90
51884;DHT22;37915;53.254;6.598;2023-05-10T04:10:17;12.10;99.90
51884;DHT22;37915;53.254;6.598;2023-05-10T04:12:43;12.10;99.90
51884;DHT22;37915;53.254;6.598;2023-05-10T04:15:10;12.10;99.90
51884;DHT22;37915;53.254;6.598;2023-05-10T04:17:42;12.10;99.90
51884;DHT22;37915;53.254;6.598;2023-05-10T04:20:10;12.30;99.90
51884;DHT22;37915;53.254;6.598;2023-05-10T04:22:36;12.20;99.90
51884;DHT22;37915;53.254;6.598;2023-05-10T04:25:02;12.00;99.90
51884;DHT22;37915;53.254;6.598;2023-05-10T04:27:28;12.00;99.90
51884;DHT22;37915;53.254;6.598;2023-05-10T04:29:54;12.00;99.90
51884;DHT22;37915;53.254;6.598;2023-05-10T04:32:19;12.00;99.90
51884;DHT22;37915;53.254;6.598;2023-05-10T04:34:45;12.00;99.90
51884;DHT22;37915;53.254;6.598;2023-05-10T04:37:11;12.00;99.90
51884;DHT22;37915;53.254;6.598;2023-05-10T04:39:37;12.00;99.90
51884;DHT22;37915;53.254;6.598;2023-05-10T04:42:03;12.00;99.90
51884;DHT22;37915;53.254;6.598;2023-05-10T04:44:29;12.00;99.90
51884;DHT22;37915;53.254;6.598;2023-05-10T04:46:55;12.10;99.90
51884;DHT22;37915;53.254;6.598;2023-05-10T04:49:20;12.10;99.90
51884;DHT22;37915;53.254;6.598;2023-05-10T04:51:47;12.00;99.90
51884;DHT22;37915;53.254;6.598;2023-05-10T04:54:15;12.00;99.90
51884;DHT22;37915;53.254;6.598;2023-05-10T04:56:40;12.00;99.90
51884;DHT22;37915;53.254;6.598;2023-05-10T04:59:08;12.10;99.90
51884;DHT22;37915;53.254;6.598;2023-05-10T05:01:40;12.10;99.90
51884;DHT22;37915;53.254;6.598;2023-05-10T05:04:10;12.10;99.90
51884;DHT22;37915;53.254;6.598;2023-05-10T05:06:39;12.00;99.90
51884;DHT22;37915;53.254;6.598;2023-05-10T05:09:05;12.00;99.90
51884;DHT22;37915;53.254;6.598;2023-05-10T05:11:30;12.00;99.90
51884;DHT22;37915;53.254;6.598;2023-05-10T05:13:58;12.00;99.90
51884;DHT22;37915;53.254;6.598;2023-05-10T05:16:35;12.10;99.90
51884;DHT22;37915;53.254;6.598;2023-05-10T05:19:05;12.00;99.90
51884;DHT22;37915;53.254;6.598;2023-05-10T05:21:39;12.00;99.90
51884;DHT22;37915;53.254;6.598;2023-05-10T05:24:10;12.00;99.90
51884;DHT22;37915;53.254;6.598;2023-05-10T05:26:43;12.00;99.90
51884;DHT22;37915;53.254;6.598;2023-05-10T05:29:18;12.00;99.90
51884;DHT22;37915;53.254;6.598;2023-05-10T05:31:44;12.00;99.90
51884;DHT22;37915;53.254;6.598;2023-05-10T05:34:11;12.00;99.90
51884;DHT22;37915;53.254;6.598;2023-05-10T05:36:37;12.00;99.90
51884;DHT22;37915;53.254;6.598;2023-05-10T05:39:06;12.00;99.90
51884;DHT22;37915;53.254;6.598;2023-05-10T05:41:31;12.10;99.90
51884;DHT22;37915;53.254;6.598;2023-05-10T05:43:57;12.10;99.90
51884;DHT22;37915;53.254;6.598;2023-05-10T05:46:23;12.10;99.90
51884;DHT22;37915;53.254;6.598;2023-05-10T05:48:48;12.10;99.90
51884;DHT22;37915;53.254;6.598;2023-05-10T05:51:14;11.90;99.90
51884;DHT22;37915;53.254;6.598;2023-05-10T05:53:40;12.10;99.90
51884;DHT22;37915;53.254;6.598;2023-05-10T05:56:06;12.10;99.90
51884;DHT22;37915;53.254;6.598;2023-05-10T05:58:31;12.20;99.90
51884;DHT22;37915;53.254;6.598;2023-05-10T06:00:57;12.20;99.90
51884;DHT22;37915;53.254;6.598;2023-05-10T06:03:23;12.20;99.90
51884;DHT22;37915;53.254;6.598;2023-05-10T06:05:48;12.20;99.90
51884;DHT22;37915;53.254;6.598;2023-05-10T06:08:14;12.20;99.90
51884;DHT22;37915;53.254;6.598;2023-05-10T06:10:40;12.20;99.90
51884;DHT22;37915;53.254;6.598;2023-05-10T06:13:05;12.20;99.90
51884;DHT22;37915;53.254;6.598;2023-05-10T06:15:31;12.20;99.90
51884;DHT22;37915;53.254;6.598;2023-05-10T06:17:58;12.20;99.90
51884;DHT22;37915;53.254;6.598;2023-05-10T06:20:23;12.20;99.90
51884;DHT22;37915;53.254;6.598;2023-05-10T06:22:49;12.20;99.90
51884;DHT22;37915;53.254;6.598;2023-05-10T06:25:15;12.10;99.90
51884;DHT22;37915;53.254;6.598;2023-05-10T06:27:43;12.10;99.90
51884;DHT22;37915;53.254;6.598;2023-05-10T06:30:09;12.10;99.90
51884;DHT22;37915;53.254;6.598;2023-05-10T06:32:35;12.10;99.90
51884;DHT22;37915;53.254;6.598;2023-05-10T06:35:01;12.00;99.90
51884;DHT22;37915;53.254;6.598;2023-05-10T06:37:26;12.10;99.90
51884;DHT22;37915;53.254;6.598;2023-05-10T06:39:52;12.00;99.90
51884;DHT22;37915;53.254;6.598;2023-05-10T06:42:18;12.00;99.90
51884;DHT22;37915;53.254;6.598;2023-05-10T06:44:43;12.00;99.90
51884;DHT22;37915;53.254;6.598;2023-05-10T06:47:09;12.00;99.90
51884;DHT22;37915;53.254;6.598;2023-05-10T06:49:35;12.00;99.90
51884;DHT22;37915;53.254;6.598;2023-05-10T06:52:00;12.00;99.90
51884;DHT22;37915;53.254;6.598;2023-05-10T06:54:26;12.00;99.90
51884;DHT22;37915;53.254;6.598;2023-05-10T06:56:52;11.90;99.90
51884;DHT22;37915;53.254;6.598;2023-05-10T06:59:18;12.00;99.90
51884;DHT22;37915;53.254;6.598;2023-05-10T07:01:44;11.90;99.90
51884;DHT22;37915;53.254;6.598;2023-05-10T07:04:10;11.90;99.90
51884;DHT22;37915;53.254;6.598;2023-05-10T07:06:36;11.90;99.90
51884;DHT22;37915;53.254;6.598;2023-05-10T07:09:02;11.90;99.90
51884;DHT22;37915;53.254;6.598;2023-05-10T07:11:27;11.90;99.90
51884;DHT22;37915;53.254;6.598;2023-05-10T07:13:54;11.90;99.90
51884;DHT22;37915;53.254;6.598;2023-05-10T07:16:20;11.90;99.90
51884;DHT22;37915;53.254;6.598;2023-05-10T07:18:46;11.80;99.90
51884;DHT22;37915;53.254;6.598;2023-05-10T07:21:12;11.80;99.90
51884;DHT22;37915;53.254;6.598;2023-05-10T07:23:38;11.80;99.90
51884;DHT22;37915;53.254;6.598;2023-05-10T07:26:04;11.90;99.90
51884;DHT22;37915;53.254;6.598;2023-05-10T07:28:29;11.90;99.90
51884;DHT22;37915;53.254;6.598;2023-05-10T07:30:55;11.90;99.90
51884;DHT22;37915;53.254;6.598;2023-05-10T07:33:21;11.90;99.90
51884;DHT22;37915;53.254;6.598;2023-05-10T07:35:46;11.90;99.90
51884;DHT22;37915;53.254;6.598;2023-05-10T07:38:12;12.00;99.90
51884;DHT22;37915;53.254;6.598;2023-05-10T07:40:39;12.00;99.90
51884;DHT22;37915;53.254;6.598;2023-05-10T07:43:04;12.00;99.90
51884;DHT22;37915;53.254;6.598;2023-05-10T07:45:30;12.00;99.90
51884;DHT22;37915;53.254;6.598;2023-05-10T07:47:56;12.10;99.90
51884;DHT22;37915;53.254;6.598;2023-05-10T07:50:22;12.10;99.90
51884;DHT22;37915;53.254;6.598;2023-05-10T07:52:47;12.20;99.90
51884;DHT22;37915;53.254;6.598;2023-05-10T07:55:13;12.20;99.90
51884;DHT22;37915;53.254;6.598;2023-05-10T07:57:39;12.20;99.90
51884;DHT22;37915;53.254;6.598;2023-05-10T08:00:06;12.20;99.90
51884;DHT22;37915;53.254;6.598;2023-05-10T08:02:34;12.20;99.90
51884;DHT22;37915;53.254;6.598;2023-05-10T08:04:59;12.20;99.90
51884;DHT22;37915;53.254;6.598;2023-05-10T08:07:25;12.20;99.90
51884;DHT22;37915;53.254;6.598;2023-05-10T08:09:51;12.30;99.90
51884;DHT22;37915;53.254;6.598;2023-05-10T08:12:16;12.30;99.90
51884;DHT22;37915;53.254;6.598;2023-05-10T08:14:42;12.20;99.90
51884;DHT22;37915;53.254;6.598;2023-05-10T08:17:08;12.30;99.90
51884;DHT22;37915;53.254;6.598;2023-05-10T08:19:34;12.30;99.90
51884;DHT22;37915;53.254;6.598;2023-05-10T08:22:00;12.30;99.90
51884;DHT22;37915;53.254;6.598;2023-05-10T08:24:26;12.30;99.90
51884;DHT22;37915;53.254;6.598;2023-05-10T08:26:53;12.30;99.90
51884;DHT22;37915;53.254;6.598;2023-05-10T08:29:20;12.30;99.90
51884;DHT22;37915;53.254;6.598;2023-05-10T08:31:46;12.30;99.90
51884;DHT22;37915;53.254;6.598;2023-05-10T08:34:12;11.80;99.90
51884;DHT22;37915;53.254;6.598;2023-05-10T08:36:37;12.30;99.90
51884;DHT22;37915;53.254;6.598;2023-05-10T08:39:04;12.30;99.90
51884;DHT22;37915;53.254;6.598;2023-05-10T08:41:33;12.30;99.90
51884;DHT22;37915;53.254;6.598;2023-05-10T08:44:08;12.30;99.90
51884;DHT22;37915;53.254;6.598;2023-05-10T08:46:37;12.30;99.90
51884;DHT22;37915;53.254;6.598;2023-05-10T08:49:18;12.40;99.90
51884;DHT22;37915;53.254;6.598;2023-05-10T08:51:54;12.30;99.90
51884;DHT22;37915;53.254;6.598;2023-05-10T08:54:22;12.30;99.90
51884;DHT22;37915;53.254;6.598;2023-05-10T08:56:52;12.40;99.90
51884;DHT22;37915;53.254;6.598;2023-05-10T08:59:18;12.40;99.90
51884;DHT22;37915;53.254;6.598;2023-05-10T09:01:45;12.40;99.90
51884;DHT22;37915;53.254;6.598;2023-05-10T09:04:13;12.40;99.90
51884;DHT22;37915;53.254;6.598;2023-05-10T09:06:42;12.30;99.90
51884;DHT22;37915;53.254;6.598;2023-05-10T09:09:12;12.40;99.90
51884;DHT22;37915;53.254;6.598;2023-05-10T09:11:38;12.40;99.90
51884;DHT22;37915;53.254;6.598;2023-05-10T09:14:05;12.40;99.90
51884;DHT22;37915;53.254;6.598;2023-05-10T09:16:31;12.50;99.90
51884;DHT22;37915;53.254;6.598;2023-05-10T09:19:06;12.40;99.90
51884;DHT22;37915;53.254;6.598;2023-05-10T09:21:34;12.40;99.90
51884;DHT22;37915;53.254;6.598;2023-05-10T09:24:06;12.40;99.90
51884;DHT22;37915;53.254;6.598;2023-05-10T09:26:33;12.50;99.90
51884;DHT22;37915;53.254;6.598;2023-05-10T09:29:01;12.50;99.90
51884;DHT22;37915;53.254;6.598;2023-05-10T09:31:47;12.50;99.90
51884;DHT22;37915;53.254;6.598;2023-05-10T09:34:32;12.60;99.90
51884;DHT22;37915;53.254;6.598;2023-05-10T09:36:59;12.60;99.90
51884;DHT22;37915;53.254;6.598;2023-05-10T09:41:59;12.70;99.90
51884;DHT22;37915;53.254;6.598;2023-05-10T09:44:26;12.80;99.90
51884;DHT22;37915;53.254;6.598;2023-05-10T09:46:52;12.80;99.90
51884;DHT22;37915;53.254;6.598;2023-05-10T09:49:19;12.90;99.90
51884;DHT22;37915;53.254;6.598;2023-05-10T09:51:45;12.90;99.90
51884;DHT22;37915;53.254;6.598;2023-05-10T09:54:14;12.90;99.90
51884;DHT22;37915;53.254;6.598;2023-05-10T09:56:46;13.00;99.90
51884;DHT22;37915;53.254;6.598;2023-05-10T09:59:12;13.00;99.90
51884;DHT22;37915;53.254;6.598;2023-05-10T10:01:38;13.00;99.90
51884;DHT22;37915;53.254;6.598;2023-05-10T10:04:09;13.10;99.90
51884;DHT22;37915;53.254;6.598;2023-05-10T10:06:39;13.10;99.90
51884;DHT22;37915;53.254;6.598;2023-05-10T10:09:06;13.10;99.90
51884;DHT22;37915;53.254;6.598;2023-05-10T10:11:38;13.10;99.90
51884;DHT22;37915;53.254;6.598;2023-05-10T10:14:05;13.10;99.90
51884;DHT22;37915;53.254;6.598;2023-05-10T10:16:31;13.10;99.90
51884;DHT22;37915;53.254;6.598;2023-05-10T10:18:57;13.10;99.90
51884;DHT22;37915;53.254;6.598;2023-05-10T10:21:24;13.20;99.90
51884;DHT22;37915;53.254;6.598;2023-05-10T10:23:51;13.20;99.90
51884;DHT22;37915;53.254;6.598;2023-05-10T10:26:17;13.30;99.90
51884;DHT22;37915;53.254;6.598;2023-05-10T10:29:25;13.40;99.90
51884;DHT22;37915;53.254;6.598;2023-05-10T10:32:19;13.40;99.90
51884;DHT22;37915;53.254;6.598;2023-05-10T10:34:47;13.50;99.90
51884;DHT22;37915;53.254;6.598;2023-05-10T10:37:13;13.60;99.90
51884;DHT22;37915;53.254;6.598;2023-05-10T10:39:38;13.60;99.90
51884;DHT22;37915;53.254;6.598;2023-05-10T10:42:04;13.70;99.90
51884;DHT22;37915;53.254;6.598;2023-05-10T10:50:08;13.90;99.90
51884;DHT22;37915;53.254;6.598;2023-05-10T10:52:41;13.90;99.90
51884;DHT22;37915;53.254;6.598;2023-05-10T10:55:11;13.90;99.90
51884;DHT22;37915;53.254;6.598;2023-05-10T11:00:20;14.00;99.90
51884;DHT22;37915;53.254;6.598;2023-05-10T11:05:44;14.10;99.90
51884;DHT22;37915;53.254;6.598;2023-05-10T11:08:18;14.10;99.90
51884;DHT22;37915;53.254;6.598;2023-05-10T11:10:52;14.10;99.90
51884;DHT22;37915;53.254;6.598;2023-05-10T11:13:30;14.10;99.90
51884;DHT22;37915;53.254;6.598;2023-05-10T11:15:57;14.10;99.90
51884;DHT22;37915;53.254;6.598;2023-05-10T11:18:26;14.10;99.90
51884;DHT22;37915;53.254;6.598;2023-05-10T11:20:55;14.10;99.90
51884;DHT22;37915;53.254;6.598;2023-05-10T11:23:21;14.10;99.90
51884;DHT22;37915;53.254;6.598;2023-05-10T11:25:48;14.10;99.90
51884;DHT22;37915;53.254;6.598;2023-05-10T11:28:14;14.00;99.90
51884;DHT22;37915;53.254;6.598;2023-05-10T11:30:43;14.00;99.90
51884;DHT22;37915;53.254;6.598;2023-05-10T11:33:11;14.10;99.90
51884;DHT22;37915;53.254;6.598;2023-05-10T11:35:40;14.10;99.90
51884;DHT22;37915;53.254;6.598;2023-05-10T11:38:10;14.20;99.90
51884;DHT22;37915;53.254;6.598;2023-05-10T11:40:37;14.20;99.90
51884;DHT22;37915;53.254;6.598;2023-05-10T11:43:04;14.20;99.90
51884;DHT22;37915;53.254;6.598;2023-05-10T11:45:34;14.20;99.90
51884;DHT22;37915;53.254;6.598;2023-05-10T11:48:01;14.20;99.90
51884;DHT22;37915;53.254;6.598;2023-05-10T11:50:27;14.30;99.90
51884;DHT22;37915;53.254;6.598;2023-05-10T11:52:57;14.30;99.90
51884;DHT22;37915;53.254;6.598;2023-05-10T11:55:24;14.30;99.90
51884;DHT22;37915;53.254;6.598;2023-05-10T11:57:54;14.40;99.90
51884;DHT22;37915;53.254;6.598;2023-05-10T12:00:20;14.40;99.90
51884;DHT22;37915;53.254;6.598;2023-05-10T12:02:46;14.50;99.90
51884;DHT22;37915;53.254;6.598;2023-05-10T12:05:13;14.50;99.90
51884;DHT22;37915;53.254;6.598;2023-05-10T12:07:39;14.60;99.90
51884;DHT22;37915;53.254;6.598;2023-05-10T12:12:42;14.50;99.90
51884;DHT22;37915;53.254;6.598;2023-05-10T12:15:21;14.50;99.90
51884;DHT22;37915;53.254;6.598;2023-05-10T12:17:48;14.50;99.90
51884;DHT22;37915;53.254;6.598;2023-05-10T12:20:18;14.40;99.90
51884;DHT22;37915;53.254;6.598;2023-05-10T12:22:49;14.40;99.90
51884;DHT22;37915;53.254;6.598;2023-05-10T12:25:15;14.40;99.90
51884;DHT22;37915;53.254;6.598;2023-05-10T12:27:48;14.30;99.90
51884;DHT22;37915;53.254;6.598;2023-05-10T12:30:20;14.30;99.90
51884;DHT22;37915;53.254;6.598;2023-05-10T12:32:46;14.30;99.90
51884;DHT22;37915;53.254;6.598;2023-05-10T12:35:12;14.30;99.90
51884;DHT22;37915;53.254;6.598;2023-05-10T12:37:37;14.30;99.90
51884;DHT22;37915;53.254;6.598;2023-05-10T12:40:08;14.30;99.90
51884;DHT22;37915;53.254;6.598;2023-05-10T12:42:35;14.20;99.90
51884;DHT22;37915;53.254;6.598;2023-05-10T12:45:02;14.20;99.90
51884;DHT22;37915;53.254;6.598;2023-05-10T12:47:28;14.20;99.90
51884;DHT22;37915;53.254;6.598;2023-05-10T12:49:53;14.20;99.90
51884;DHT22;37915;53.254;6.598;2023-05-10T12:52:19;14.10;99.90
51884;DHT22;37915;53.254;6.598;2023-05-10T12:54:46;14.10;99.90
51884;DHT22;37915;53.254;6.598;2023-05-10T12:57:12;14.20;99.90
51884;DHT22;37915;53.254;6.598;2023-05-10T12:59:38;14.10;99.90
51884;DHT22;37915;53.254;6.598;2023-05-10T13:02:04;14.20;99.90
51884;DHT22;37915;53.254;6.598;2023-05-10T13:04:29;14.20;99.90
51884;DHT22;37915;53.254;6.598;2023-05-10T13:06:55;14.30;99.90
51884;DHT22;37915;53.254;6.598;2023-05-10T13:09:24;14.40;99.90
51884;DHT22;37915;53.254;6.598;2023-05-10T13:11:50;14.40;99.90
51884;DHT22;37915;53.254;6.598;2023-05-10T13:14:16;14.40;99.90
51884;DHT22;37915;53.254;6.598;2023-05-10T13:16:42;14.40;99.90
51884;DHT22;37915;53.254;6.598;2023-05-10T13:19:08;14.40;99.90
51884;DHT22;37915;53.254;6.598;2023-05-10T13:21:33;14.40;99.90
51884;DHT22;37915;53.254;6.598;2023-05-10T13:23:59;14.40;99.90
51884;DHT22;37915;53.254;6.598;2023-05-10T13:26:25;14.50;99.90
51884;DHT22;37915;53.254;6.598;2023-05-10T13:28:51;14.50;99.90
51884;DHT22;37915;53.254;6.598;2023-05-10T13:31:17;14.60;99.90
51884;DHT22;37915;53.254;6.598;2023-05-10T13:33:42;14.60;99.90
51884;DHT22;37915;53.254;6.598;2023-05-10T13:36:11;14.70;99.90
51884;DHT22;37915;53.254;6.598;2023-05-10T13:38:36;14.80;99.90
51884;DHT22;37915;53.254;6.598;2023-05-10T13:41:02;14.80;99.90
51884;DHT22;37915;53.254;6.598;2023-05-10T13:43:29;14.90;99.90
51884;DHT22;37915;53.254;6.598;2023-05-10T13:45:55;15.00;99.90
51884;DHT22;37915;53.254;6.598;2023-05-10T13:48:21;15.00;99.90
51884;DHT22;37915;53.254;6.598;2023-05-10T13:50:46;15.00;99.90
51884;DHT22;37915;53.254;6.598;2023-05-10T13:53:12;15.00;99.90
51884;DHT22;37915;53.254;6.598;2023-05-10T13:55:38;15.00;99.90
51884;DHT22;37915;53.254;6.598;2023-05-10T13:58:04;15.00;99.90
51884;DHT22;37915;53.254;6.598;2023-05-10T14:00:29;15.00;99.90
51884;DHT22;37915;53.254;6.598;2023-05-10T14:02:55;15.00;99.90
51884;DHT22;37915;53.254;6.598;2023-05-10T14:05:21;15.00;99.90
51884;DHT22;37915;53.254;6.598;2023-05-10T14:07:48;15.00;99.90
51884;DHT22;37915;53.254;6.598;2023-05-10T14:10:14;15.00;99.90
51884;DHT22;37915;53.254;6.598;2023-05-10T14:12:39;15.00;99.90
51884;DHT22;37915;53.254;6.598;2023-05-10T14:15:05;15.00;99.90
51884;DHT22;37915;53.254;6.598;2023-05-10T14:17:32;15.00;99.90
51884;DHT22;37915;53.254;6.598;2023-05-10T14:19:57;15.00;99.90
51884;DHT22;37915;53.254;6.598;2023-05-10T14:22:23;15.00;99.90
51884;DHT22;37915;53.254;6.598;2023-05-10T14:24:49;15.00;99.90
51884;DHT22;37915;53.254;6.598;2023-05-10T14:27:15;14.90;99.90
51884;DHT22;37915;53.254;6.598;2023-05-10T14:29:41;14.90;99.90
51884;DHT22;37915;53.254;6.598;2023-05-10T14:32:08;14.90;99.90
51884;DHT22;37915;53.254;6.598;2023-05-10T14:34:34;14.90;99.90
51884;DHT22;37915;53.254;6.598;2023-05-10T14:37:00;14.90;99.90
51884;DHT22;37915;53.254;6.598;2023-05-10T14:39:25;15.00;99.90
51884;DHT22;37915;53.254;6.598;2023-05-10T14:41:55;15.00;99.90
51884;DHT22;37915;53.254;6.598;2023-05-10T14:44:20;15.10;99.90
51884;DHT22;37915;53.254;6.598;2023-05-10T14:46:46;15.20;99.90
51884;DHT22;37915;53.254;6.598;2023-05-10T14:49:12;15.20;99.90
51884;DHT22;37915;53.254;6.598;2023-05-10T14:51:38;15.30;99.90
51884;DHT22;37915;53.254;6.598;2023-05-10T14:54:03;15.50;99.90
51884;DHT22;37915;53.254;6.598;2023-05-10T14:56:29;15.60;99.90
51884;DHT22;37915;53.254;6.598;2023-05-10T14:58:55;15.70;99.90
51884;DHT22;37915;53.254;6.598;2023-05-10T15:01:21;15.70;99.90
51884;DHT22;37915;53.254;6.598;2023-05-10T15:03:46;15.70;99.90
51884;DHT22;37915;53.254;6.598;2023-05-10T15:06:14;15.70;99.90
51884;DHT22;37915;53.254;6.598;2023-05-10T15:08:41;15.70;99.90
51884;DHT22;37915;53.254;6.598;2023-05-10T15:11:07;15.60;99.90
51884;DHT22;37915;53.254;6.598;2023-05-10T15:13:32;15.70;99.90
51884;DHT22;37915;53.254;6.598;2023-05-10T15:15:58;15.90;99.90
51884;DHT22;37915;53.254;6.598;2023-05-10T15:18:26;15.70;99.90
51884;DHT22;37915;53.254;6.598;2023-05-10T15:20:53;15.60;99.90
51884;DHT22;37915;53.254;6.598;2023-05-10T15:23:18;15.60;99.90
51884;DHT22;37915;53.254;6.598;2023-05-10T15:25:48;15.60;99.90
51884;DHT22;37915;53.254;6.598;2023-05-10T15:28:17;15.50;99.90
51884;DHT22;37915;53.254;6.598;2023-05-10T15:30:45;15.50;99.90
51884;DHT22;37915;53.254;6.598;2023-05-10T15:33:31;15.50;99.90
51884;DHT22;37915;53.254;6.598;2023-05-10T15:35:57;15.50;99.90
51884;DHT22;37915;53.254;6.598;2023-05-10T15:38:22;15.80;99.90
51884;DHT22;37915;53.254;6.598;2023-05-10T15:40:48;15.40;99.90
51884;DHT22;37915;53.254;6.598;2023-05-10T15:43:14;15.40;99.90
51884;DHT22;37915;53.254;6.598;2023-05-10T15:45:40;15.40;99.90
51884;DHT22;37915;53.254;6.598;2023-05-10T15:48:06;15.40;99.90
51884;DHT22;37915;53.254;6.598;2023-05-10T15:50:32;15.30;99.90
51884;DHT22;37915;53.254;6.598;2023-05-10T15:52:58;15.20;99.90
51884;DHT22;37915;53.254;6.598;2023-05-10T15:55:27;15.10;99.90
51884;DHT22;37915;53.254;6.598;2023-05-10T15:57:53;15.10;99.90
51884;DHT22;37915;53.254;6.598;2023-05-10T16:00:21;15.00;99.90
51884;DHT22;37915;53.254;6.598;2023-05-10T16:02:47;15.00;99.90